sensor_id;sensor_type;location;lat;lon;timestamp;P1;durP1;ratioP1;P2;durP2;ratioP2
16450;SDS011;12243;42.708;23.310;2023-02-18T00:00:19;22.50;;;13.77;;
16450;SDS011;12243;42.708;23.310;2023-02-18T00:02:47;23.77;;;13.60;;
16450;SDS011;12243;42.708;23.310;2023-02-18T00:05:15;30.97;;;15.40;;
16450;SDS011;12243;42.708;23.310;2023-02-18T00:07:42;22.97;;;14.13;;
16450;SDS011;12243;42.708;23.310;2023-02-18T00:10:10;25.90;;;14.60;;
16450;SDS011;12243;42.708;23.310;2023-02-18T00:12:39;28.80;;;15.47;;
16450;SDS011;12243;42.708;23.310;2023-02-18T00:15:07;28.03;;;15.40;;
16450;SDS011;12243;42.708;23.310;2023-02-18T00:17:34;24.70;;;14.37;;
16450;SDS011;12243;42.708;23.310;2023-02-18T00:20:02;26.80;;;16.27;;
16450;SDS011;12243;42.708;23.310;2023-02-18T00:22:29;26.87;;;14.90;;
16450;SDS011;12243;42.708;23.310;2023-02-18T00:24:56;25.13;;;15.13;;
16450;SDS011;12243;42.708;23.310;2023-02-18T00:27:23;26.13;;;15.13;;
16450;SDS011;12243;42.708;23.310;2023-02-18T00:29:52;25.90;;;13.90;;
16450;SDS011;12243;42.708;23.310;2023-02-18T00:32:22;20.77;;;13.73;;
16450;SDS011;12243;42.708;23.310;2023-02-18T00:34:49;22.80;;;12.73;;
16450;SDS011;12243;42.708;23.310;2023-02-18T00:37:16;20.27;;;11.80;;
16450;SDS011;12243;42.708;23.310;2023-02-18T00:39:42;22.60;;;13.97;;
16450;SDS011;12243;42.708;23.310;2023-02-18T00:42:09;26.80;;;14.70;;
16450;SDS011;12243;42.708;23.310;2023-02-18T00:44:37;29.47;;;17.20;;
16450;SDS011;12243;42.708;23.310;2023-02-18T00:47:05;25.03;;;14.47;;
16450;SDS011;12243;42.708;23.310;2023-02-18T00:49:32;27.93;;;14.13;;
16450;SDS011;12243;42.708;23.310;2023-02-18T00:52:02;20.97;;;13.57;;
16450;SDS011;12243;42.708;23.310;2023-02-18T00:54:29;23.70;;;14.33;;
16450;SDS011;12243;42.708;23.310;2023-02-18T00:56:56;19.67;;;12.77;;
16450;SDS011;12243;42.708;23.310;2023-02-18T00:59:24;17.97;;;11.93;;
16450;SDS011;12243;42.708;23.310;2023-02-18T01:01:51;20.97;;;11.97;;
16450;SDS011;12243;42.708;23.310;2023-02-18T01:04:20;18.87;;;11.47;;
16450;SDS011;12243;42.708;23.310;2023-02-18T01:06:47;19.37;;;11.63;;
16450;SDS011;12243;42.708;23.310;2023-02-18T01:09:14;16.53;;;11.57;;
16450;SDS011;12243;42.708;23.310;2023-02-18T01:11:42;16.17;;;10.60;;
16450;SDS011;12243;42.708;23.310;2023-02-18T01:14:09;22.60;;;11.90;;
16450;SDS011;12243;42.708;23.310;2023-02-18T01:16:36;21.17;;;11.97;;
16450;SDS011;12243;42.708;23.310;2023-02-18T01:19:06;19.00;;;11.80;;
16450;SDS011;12243;42.708;23.310;2023-02-18T01:21:35;20.67;;;12.00;;
16450;SDS011;12243;42.708;23.310;2023-02-18T01:24:02;22.63;;;12.33;;
16450;SDS011;12243;42.708;23.310;2023-02-18T01:26:29;19.23;;;13.50;;
16450;SDS011;12243;42.708;23.310;2023-02-18T01:28:56;21.67;;;13.13;;
16450;SDS011;12243;42.708;23.310;2023-02-18T01:31:23;21.17;;;12.63;;
16450;SDS011;12243;42.708;23.310;2023-02-18T01:33:49;22.53;;;12.07;;
16450;SDS011;12243;42.708;23.310;2023-02-18T01:36:17;20.53;;;12.27;;
16450;SDS011;12243;42.708;23.310;2023-02-18T01:38:45;20.07;;;12.57;;
16450;SDS011;12243;42.708;23.310;2023-02-18T01:41:12;20.97;;;13.03;;
16450;SDS011;12243;42.708;23.310;2023-02-18T01:43:39;22.57;;;12.93;;
16450;SDS011;12243;42.708;23.310;2023-02-18T01:46:12;20.33;;;13.10;;
16450;SDS011;12243;42.708;23.310;2023-02-18T01:48:45;19.83;;;12.53;;
16450;SDS011;12243;42.708;23.310;2023-02-18T01:51:16;22.57;;;13.27;;
16450;SDS011;12243;42.708;23.310;2023-02-18T01:53:50;20.53;;;13.33;;
16450;SDS011;12243;42.708;23.310;2023-02-18T01:56:25;26.87;;;13.67;;
16450;SDS011;12243;42.708;23.310;2023-02-18T01:58:56;25.80;;;13.37;;
16450;SDS011;12243;42.708;23.310;2023-02-18T02:01:27;24.43;;;13.83;;
16450;SDS011;12243;42.708;23.310;2023-02-18T02:03:54;25.83;;;14.80;;
16450;SDS011;12243;42.708;23.310;2023-02-18T02:06:22;21.00;;;14.13;;
16450;SDS011;12243;42.708;23.310;2023-02-18T02:08:52;25.17;;;15.33;;
16450;SDS011;12243;42.708;23.310;2023-02-18T02:11:26;24.77;;;14.77;;
16450;SDS011;12243;42.708;23.310;2023-02-18T02:14:10;25.33;;;14.30;;
16450;SDS011;12243;42.708;23.310;2023-02-18T02:16:49;27.83;;;14.77;;
16450;SDS011;12243;42.708;23.310;2023-02-18T02:22:34;27.30;;;13.80;;
16450;SDS011;12243;42.708;23.310;2023-02-18T02:25:22;25.43;;;14.17;;
16450;SDS011;12243;42.708;23.310;2023-02-18T02:31:09;24.20;;;13.90;;
16450;SDS011;12243;42.708;23.310;2023-02-18T02:33:57;22.40;;;13.53;;
16450;SDS011;12243;42.708;23.310;2023-02-18T02:36:53;20.77;;;12.37;;
16450;SDS011;12243;42.708;23.310;2023-02-18T02:39:28;28.47;;;13.73;;
16450;SDS011;12243;42.708;23.310;2023-02-18T02:42:06;25.30;;;13.77;;
16450;SDS011;12243;42.708;23.310;2023-02-18T02:44:41;18.77;;;12.13;;
16450;SDS011;12243;42.708;23.310;2023-02-18T02:47:17;20.07;;;12.83;;
16450;SDS011;12243;42.708;23.310;2023-02-18T02:49:55;20.23;;;13.30;;
16450;SDS011;12243;42.708;23.310;2023-02-18T02:52:29;22.77;;;13.37;;
16450;SDS011;12243;42.708;23.310;2023-02-18T02:54:58;23.50;;;13.77;;
16450;SDS011;12243;42.708;23.310;2023-02-18T02:57:42;19.07;;;12.00;;
16450;SDS011;12243;42.708;23.310;2023-02-18T03:00:21;19.03;;;10.87;;
16450;SDS011;12243;42.708;23.310;2023-02-18T03:02:57;17.70;;;11.37;;
16450;SDS011;12243;42.708;23.310;2023-02-18T03:05:41;18.87;;;10.77;;
16450;SDS011;12243;42.708;23.310;2023-02-18T03:08:21;17.53;;;10.90;;
16450;SDS011;12243;42.708;23.310;2023-02-18T03:10:59;15.33;;;10.57;;
16450;SDS011;12243;42.708;23.310;2023-02-18T03:13:32;17.13;;;10.70;;
16450;SDS011;12243;42.708;23.310;2023-02-18T03:16:15;19.00;;;11.53;;
16450;SDS011;12243;42.708;23.310;2023-02-18T03:18:50;21.97;;;11.93;;
16450;SDS011;12243;42.708;23.310;2023-02-18T03:21:26;20.57;;;12.70;;
16450;SDS011;12243;42.708;23.310;2023-02-18T03:23:56;22.33;;;13.33;;
16450;SDS011;12243;42.708;23.310;2023-02-18T03:26:27;22.50;;;14.20;;
16450;SDS011;12243;42.708;23.310;2023-02-18T03:28:58;30.00;;;14.60;;
16450;SDS011;12243;42.708;23.310;2023-02-18T03:31:28;26.13;;;15.67;;
16450;SDS011;12243;42.708;23.310;2023-02-18T03:34:00;31.10;;;17.13;;
16450;SDS011;12243;42.708;23.310;2023-02-18T03:36:33;27.97;;;15.90;;
16450;SDS011;12243;42.708;23.310;2023-02-18T03:39:02;29.60;;;17.90;;
16450;SDS011;12243;42.708;23.310;2023-02-18T03:41:33;30.83;;;19.27;;
16450;SDS011;12243;42.708;23.310;2023-02-18T03:44:02;30.90;;;18.37;;
16450;SDS011;12243;42.708;23.310;2023-02-18T03:46:32;33.27;;;19.17;;
16450;SDS011;12243;42.708;23.310;2023-02-18T03:49:01;31.10;;;19.13;;
16450;SDS011;12243;42.708;23.310;2023-02-18T03:51:28;33.30;;;19.80;;
16450;SDS011;12243;42.708;23.310;2023-02-18T03:53:57;37.47;;;22.03;;
16450;SDS011;12243;42.708;23.310;2023-02-18T03:56:24;42.73;;;22.17;;
16450;SDS011;12243;42.708;23.310;2023-02-18T03:58:51;40.77;;;24.10;;
16450;SDS011;12243;42.708;23.310;2023-02-18T04:01:18;40.90;;;22.63;;
16450;SDS011;12243;42.708;23.310;2023-02-18T04:03:45;44.53;;;22.23;;
16450;SDS011;12243;42.708;23.310;2023-02-18T04:06:14;36.50;;;21.20;;
16450;SDS011;12243;42.708;23.310;2023-02-18T04:08:44;31.83;;;19.80;;
16450;SDS011;12243;42.708;23.310;2023-02-18T04:11:12;33.30;;;18.23;;
16450;SDS011;12243;42.708;23.310;2023-02-18T04:13:39;31.40;;;18.57;;
16450;SDS011;12243;42.708;23.310;2023-02-18T04:16:06;33.90;;;18.37;;
16450;SDS011;12243;42.708;23.310;2023-02-18T04:18:33;30.43;;;17.57;;
16450;SDS011;12243;42.708;23.310;2023-02-18T04:21:00;34.83;;;22.40;;
16450;SDS011;12243;42.708;23.310;2023-02-18T04:23:27;107.70;;;58.33;;
16450;SDS011;12243;42.708;23.310;2023-02-18T04:25:54;69.53;;;38.93;;
16450;SDS011;12243;42.708;23.310;2023-02-18T04:28:22;314.63;;;143.40;;
16450;SDS011;12243;42.708;23.310;2023-02-18T04:30:49;80.27;;;41.87;;
16450;SDS011;12243;42.708;23.310;2023-02-18T04:33:16;32.67;;;18.43;;
16450;SDS011;12243;42.708;23.310;2023-02-18T04:35:43;31.67;;;18.77;;
16450;SDS011;12243;42.708;23.310;2023-02-18T04:38:09;34.50;;;19.83;;
16450;SDS011;12243;42.708;23.310;2023-02-18T04:40:37;37.20;;;20.80;;
16450;SDS011;12243;42.708;23.310;2023-02-18T04:43:03;32.17;;;19.17;;
16450;SDS011;12243;42.708;23.310;2023-02-18T04:45:32;32.53;;;18.90;;
16450;SDS011;12243;42.708;23.310;2023-02-18T04:47:59;30.40;;;18.50;;
16450;SDS011;12243;42.708;23.310;2023-02-18T04:50:26;33.17;;;19.37;;
16450;SDS011;12243;42.708;23.310;2023-02-18T04:52:53;31.10;;;18.50;;
16450;SDS011;12243;42.708;23.310;2023-02-18T04:55:20;37.27;;;21.77;;
16450;SDS011;12243;42.708;23.310;2023-02-18T04:57:46;38.00;;;20.93;;
16450;SDS011;12243;42.708;23.310;2023-02-18T05:00:15;38.30;;;20.80;;
16450;SDS011;12243;42.708;23.310;2023-02-18T05:02:45;37.63;;;21.97;;
16450;SDS011;12243;42.708;23.310;2023-02-18T05:05:13;47.33;;;22.13;;
16450;SDS011;12243;42.708;23.310;2023-02-18T05:07:40;37.67;;;20.10;;
16450;SDS011;12243;42.708;23.310;2023-02-18T05:10:08;36.03;;;20.53;;
16450;SDS011;12243;42.708;23.310;2023-02-18T05:12:36;37.63;;;20.87;;
16450;SDS011;12243;42.708;23.310;2023-02-18T05:15:03;33.80;;;21.07;;
16450;SDS011;12243;42.708;23.310;2023-02-18T05:17:30;37.37;;;21.17;;
16450;SDS011;12243;42.708;23.310;2023-02-18T05:19:58;33.80;;;20.63;;
16450;SDS011;12243;42.708;23.310;2023-02-18T05:22:25;41.77;;;22.80;;
16450;SDS011;12243;42.708;23.310;2023-02-18T05:24:52;40.67;;;22.20;;
16450;SDS011;12243;42.708;23.310;2023-02-18T05:27:19;47.93;;;23.33;;
16450;SDS011;12243;42.708;23.310;2023-02-18T05:29:46;40.20;;;21.87;;
16450;SDS011;12243;42.708;23.310;2023-02-18T05:32:13;39.07;;;21.30;;
16450;SDS011;12243;42.708;23.310;2023-02-18T05:34:40;36.73;;;19.70;;
16450;SDS011;12243;42.708;23.310;2023-02-18T05:37:08;32.67;;;19.43;;
16450;SDS011;12243;42.708;23.310;2023-02-18T05:39:37;33.93;;;19.43;;
16450;SDS011;12243;42.708;23.310;2023-02-18T05:42:04;32.07;;;19.23;;
16450;SDS011;12243;42.708;23.310;2023-02-18T05:44:32;33.63;;;18.53;;
16450;SDS011;12243;42.708;23.310;2023-02-18T05:46:59;34.13;;;19.00;;
16450;SDS011;12243;42.708;23.310;2023-02-18T05:49:27;35.80;;;18.40;;
16450;SDS011;12243;42.708;23.310;2023-02-18T05:51:54;37.50;;;18.23;;
16450;SDS011;12243;42.708;23.310;2023-02-18T05:54:23;32.40;;;18.20;;
16450;SDS011;12243;42.708;23.310;2023-02-18T05:56:51;33.50;;;17.77;;
16450;SDS011;12243;42.708;23.310;2023-02-18T05:59:19;29.67;;;17.17;;
16450;SDS011;12243;42.708;23.310;2023-02-18T06:01:46;27.73;;;18.37;;
16450;SDS011;12243;42.708;23.310;2023-02-18T06:04:13;30.37;;;17.70;;
16450;SDS011;12243;42.708;23.310;2023-02-18T06:06:41;33.23;;;19.50;;
16450;SDS011;12243;42.708;23.310;2023-02-18T06:09:08;34.57;;;19.70;;
16450;SDS011;12243;42.708;23.310;2023-02-18T06:11:36;42.70;;;21.40;;
16450;SDS011;12243;42.708;23.310;2023-02-18T06:14:04;42.33;;;22.20;;
16450;SDS011;12243;42.708;23.310;2023-02-18T06:16:31;44.07;;;22.30;;
16450;SDS011;12243;42.708;23.310;2023-02-18T06:18:58;48.17;;;23.93;;
16450;SDS011;12243;42.708;23.310;2023-02-18T06:21:25;53.47;;;33.40;;
16450;SDS011;12243;42.708;23.310;2023-02-18T06:23:52;148.67;;;89.93;;
16450;SDS011;12243;42.708;23.310;2023-02-18T06:26:19;42.90;;;25.50;;
16450;SDS011;12243;42.708;23.310;2023-02-18T06:28:47;42.67;;;22.70;;
16450;SDS011;12243;42.708;23.310;2023-02-18T06:31:14;46.43;;;21.77;;
16450;SDS011;12243;42.708;23.310;2023-02-18T06:33:41;39.17;;;20.53;;
16450;SDS011;12243;42.708;23.310;2023-02-18T06:36:10;44.80;;;20.27;;
16450;SDS011;12243;42.708;23.310;2023-02-18T06:38:38;35.93;;;19.73;;
16450;SDS011;12243;42.708;23.310;2023-02-18T06:41:07;37.30;;;20.13;;
16450;SDS011;12243;42.708;23.310;2023-02-18T06:43:34;31.67;;;17.50;;
16450;SDS011;12243;42.708;23.310;2023-02-18T06:46:02;35.13;;;16.87;;
16450;SDS011;12243;42.708;23.310;2023-02-18T06:48:30;30.60;;;17.40;;
16450;SDS011;12243;42.708;23.310;2023-02-18T06:50:57;37.70;;;18.47;;
16450;SDS011;12243;42.708;23.310;2023-02-18T06:53:25;31.43;;;17.27;;
16450;SDS011;12243;42.708;23.310;2023-02-18T06:55:52;27.70;;;17.13;;
16450;SDS011;12243;42.708;23.310;2023-02-18T06:58:19;28.60;;;17.47;;
16450;SDS011;12243;42.708;23.310;2023-02-18T07:00:47;40.53;;;19.83;;
16450;SDS011;12243;42.708;23.310;2023-02-18T07:03:15;29.70;;;18.40;;
16450;SDS011;12243;42.708;23.310;2023-02-18T07:05:43;30.90;;;17.87;;
16450;SDS011;12243;42.708;23.310;2023-02-18T07:08:10;31.67;;;17.00;;
16450;SDS011;12243;42.708;23.310;2023-02-18T07:10:37;30.47;;;17.50;;
16450;SDS011;12243;42.708;23.310;2023-02-18T07:13:04;31.10;;;17.00;;
16450;SDS011;12243;42.708;23.310;2023-02-18T07:15:32;32.87;;;18.53;;
16450;SDS011;12243;42.708;23.310;2023-02-18T07:17:59;35.00;;;21.43;;
16450;SDS011;12243;42.708;23.310;2023-02-18T07:20:27;39.70;;;20.60;;
16450;SDS011;12243;42.708;23.310;2023-02-18T07:22:54;38.40;;;21.40;;
16450;SDS011;12243;42.708;23.310;2023-02-18T07:25:21;41.27;;;22.13;;
16450;SDS011;12243;42.708;23.310;2023-02-18T07:27:48;43.07;;;22.67;;
16450;SDS011;12243;42.708;23.310;2023-02-18T07:30:15;37.20;;;22.13;;
16450;SDS011;12243;42.708;23.310;2023-02-18T07:32:42;33.70;;;19.33;;
16450;SDS011;12243;42.708;23.310;2023-02-18T07:35:10;41.37;;;21.63;;
16450;SDS011;12243;42.708;23.310;2023-02-18T07:37:41;39.20;;;21.10;;
16450;SDS011;12243;42.708;23.310;2023-02-18T07:40:10;41.30;;;20.57;;
16450;SDS011;12243;42.708;23.310;2023-02-18T07:42:38;36.13;;;19.77;;
16450;SDS011;12243;42.708;23.310;2023-02-18T07:45:07;34.90;;;20.93;;
16450;SDS011;12243;42.708;23.310;2023-02-18T07:47:34;40.07;;;22.17;;
16450;SDS011;12243;42.708;23.310;2023-02-18T07:50:01;32.63;;;18.83;;
16450;SDS011;12243;42.708;23.310;2023-02-18T07:52:28;45.70;;;22.00;;
16450;SDS011;12243;42.708;23.310;2023-02-18T07:54:57;31.03;;;19.97;;
16450;SDS011;12243;42.708;23.310;2023-02-18T07:57:23;36.93;;;20.43;;
16450;SDS011;12243;42.708;23.310;2023-02-18T07:59:50;38.17;;;20.57;;
16450;SDS011;12243;42.708;23.310;2023-02-18T08:02:18;39.20;;;21.10;;
16450;SDS011;12243;42.708;23.310;2023-02-18T08:04:46;36.03;;;18.60;;
16450;SDS011;12243;42.708;23.310;2023-02-18T08:07:14;35.07;;;19.13;;
16450;SDS011;12243;42.708;23.310;2023-02-18T08:09:42;30.40;;;18.57;;
16450;SDS011;12243;42.708;23.310;2023-02-18T08:12:10;36.90;;;19.73;;
16450;SDS011;12243;42.708;23.310;2023-02-18T08:14:37;32.90;;;17.97;;
16450;SDS011;12243;42.708;23.310;2023-02-18T08:17:05;39.90;;;17.97;;
16450;SDS011;12243;42.708;23.310;2023-02-18T08:19:31;43.47;;;18.13;;
16450;SDS011;12243;42.708;23.310;2023-02-18T08:21:59;28.77;;;17.00;;
16450;SDS011;12243;42.708;23.310;2023-02-18T08:24:27;32.87;;;17.13;;
16450;SDS011;12243;42.708;23.310;2023-02-18T08:26:54;26.80;;;15.40;;
16450;SDS011;12243;42.708;23.310;2023-02-18T08:29:22;30.20;;;16.23;;
16450;SDS011;12243;42.708;23.310;2023-02-18T08:31:49;29.83;;;15.70;;
16450;SDS011;12243;42.708;23.310;2023-02-18T08:34:16;25.43;;;15.17;;
16450;SDS011;12243;42.708;23.310;2023-02-18T08:36:43;26.03;;;15.07;;
16450;SDS011;12243;42.708;23.310;2023-02-18T08:39:10;26.93;;;14.90;;
16450;SDS011;12243;42.708;23.310;2023-02-18T08:41:37;27.37;;;15.13;;
16450;SDS011;12243;42.708;23.310;2023-02-18T08:44:04;29.90;;;16.27;;
16450;SDS011;12243;42.708;23.310;2023-02-18T08:46:32;33.70;;;17.37;;
16450;SDS011;12243;42.708;23.310;2023-02-18T08:48:59;27.73;;;10.43;;
16450;SDS011;12243;42.708;23.310;2023-02-18T08:51:27;21.70;;;10.47;;
16450;SDS011;12243;42.708;23.310;2023-02-18T08:53:54;12.20;;;8.60;;
16450;SDS011;12243;42.708;23.310;2023-02-18T08:56:21;17.53;;;8.87;;
16450;SDS011;12243;42.708;23.310;2023-02-18T08:58:48;13.83;;;8.30;;
16450;SDS011;12243;42.708;23.310;2023-02-18T09:01:15;14.10;;;7.53;;
16450;SDS011;12243;42.708;23.310;2023-02-18T09:03:43;14.47;;;8.53;;
16450;SDS011;12243;42.708;23.310;2023-02-18T09:06:10;11.53;;;8.00;;
16450;SDS011;12243;42.708;23.310;2023-02-18T09:08:37;15.40;;;8.53;;
16450;SDS011;12243;42.708;23.310;2023-02-18T09:11:04;14.23;;;7.80;;
16450;SDS011;12243;42.708;23.310;2023-02-18T09:13:32;16.33;;;8.47;;
16450;SDS011;12243;42.708;23.310;2023-02-18T09:16:00;14.07;;;8.67;;
16450;SDS011;12243;42.708;23.310;2023-02-18T09:18:28;12.73;;;8.20;;
16450;SDS011;12243;42.708;23.310;2023-02-18T09:20:57;12.10;;;8.30;;
16450;SDS011;12243;42.708;23.310;2023-02-18T09:23:25;12.63;;;8.73;;
16450;SDS011;12243;42.708;23.310;2023-02-18T09:25:53;13.17;;;8.47;;
16450;SDS011;12243;42.708;23.310;2023-02-18T09:28:20;14.17;;;8.57;;
16450;SDS011;12243;42.708;23.310;2023-02-18T09:30:47;16.17;;;9.47;;
16450;SDS011;12243;42.708;23.310;2023-02-18T09:33:14;14.10;;;8.73;;
16450;SDS011;12243;42.708;23.310;2023-02-18T09:35:42;14.60;;;9.17;;
16450;SDS011;12243;42.708;23.310;2023-02-18T09:38:12;16.47;;;10.20;;
16450;SDS011;12243;42.708;23.310;2023-02-18T09:40:42;16.17;;;10.57;;
16450;SDS011;12243;42.708;23.310;2023-02-18T09:43:12;17.83;;;11.00;;
16450;SDS011;12243;42.708;23.310;2023-02-18T09:45:49;15.43;;;9.73;;
16450;SDS011;12243;42.708;23.310;2023-02-18T09:48:19;15.77;;;10.17;;
16450;SDS011;12243;42.708;23.310;2023-02-18T09:50:51;18.17;;;9.10;;
16450;SDS011;12243;42.708;23.310;2023-02-18T09:53:20;14.70;;;8.73;;
16450;SDS011;12243;42.708;23.310;2023-02-18T09:55:49;13.70;;;8.10;;
16450;SDS011;12243;42.708;23.310;2023-02-18T09:58:18;11.67;;;8.57;;
16450;SDS011;12243;42.708;23.310;2023-02-18T10:00:47;14.60;;;8.47;;
16450;SDS011;12243;42.708;23.310;2023-02-18T10:03:18;13.17;;;7.40;;
16450;SDS011;12243;42.708;23.310;2023-02-18T10:05:50;14.23;;;8.00;;
16450;SDS011;12243;42.708;23.310;2023-02-18T10:08:25;14.60;;;9.53;;
16450;SDS011;12243;42.708;23.310;2023-02-18T10:10:54;10.97;;;6.30;;
16450;SDS011;12243;42.708;23.310;2023-02-18T10:13:22;9.60;;;5.73;;
16450;SDS011;12243;42.708;23.310;2023-02-18T10:15:50;13.70;;;5.07;;
16450;SDS011;12243;42.708;23.310;2023-02-18T10:18:23;9.97;;;5.67;;
16450;SDS011;12243;42.708;23.310;2023-02-18T10:20:56;6.93;;;6.03;;
16450;SDS011;12243;42.708;23.310;2023-02-18T10:23:31;7.77;;;5.40;;
16450;SDS011;12243;42.708;23.310;2023-02-18T10:26:01;10.87;;;5.30;;
16450;SDS011;12243;42.708;23.310;2023-02-18T10:28:31;9.67;;;4.70;;
16450;SDS011;12243;42.708;23.310;2023-02-18T10:31:00;4.63;;;4.20;;
16450;SDS011;12243;42.708;23.310;2023-02-18T10:33:33;6.43;;;4.73;;
16450;SDS011;12243;42.708;23.310;2023-02-18T10:36:04;7.63;;;4.30;;
16450;SDS011;12243;42.708;23.310;2023-02-18T10:38:44;4.87;;;4.00;;
16450;SDS011;12243;42.708;23.310;2023-02-18T10:41:34;4.77;;;4.20;;
16450;SDS011;12243;42.708;23.310;2023-02-18T10:44:09;6.13;;;4.27;;
16450;SDS011;12243;42.708;23.310;2023-02-18T10:46:45;6.87;;;4.67;;
16450;SDS011;12243;42.708;23.310;2023-02-18T10:49:34;8.57;;;4.87;;
16450;SDS011;12243;42.708;23.310;2023-02-18T10:52:19;6.97;;;4.10;;
16450;SDS011;12243;42.708;23.310;2023-02-18T10:54:49;6.97;;;4.30;;
16450;SDS011;12243;42.708;23.310;2023-02-18T10:57:18;9.30;;;4.33;;
16450;SDS011;12243;42.708;23.310;2023-02-18T10:59:58;5.43;;;4.30;;
16450;SDS011;12243;42.708;23.310;2023-02-18T11:02:34;4.73;;;3.50;;
16450;SDS011;12243;42.708;23.310;2023-02-18T11:05:05;6.73;;;3.83;;
16450;SDS011;12243;42.708;23.310;2023-02-18T11:07:45;6.53;;;3.60;;
16450;SDS011;12243;42.708;23.310;2023-02-18T11:10:17;5.70;;;4.03;;
16450;SDS011;12243;42.708;23.310;2023-02-18T11:12:50;5.77;;;3.70;;
16450;SDS011;12243;42.708;23.310;2023-02-18T11:15:22;11.67;;;4.00;;
16450;SDS011;12243;42.708;23.310;2023-02-18T11:17:50;4.10;;;3.70;;
16450;SDS011;12243;42.708;23.310;2023-02-18T11:20:24;4.60;;;3.50;;
16450;SDS011;12243;42.708;23.310;2023-02-18T11:23:11;6.47;;;4.30;;
16450;SDS011;12243;42.708;23.310;2023-02-18T11:25:51;6.77;;;3.90;;
16450;SDS011;12243;42.708;23.310;2023-02-18T11:28:40;4.63;;;3.83;;
16450;SDS011;12243;42.708;23.310;2023-02-18T11:31:10;7.27;;;4.87;;
16450;SDS011;12243;42.708;23.310;2023-02-18T11:33:46;6.50;;;4.37;;
16450;SDS011;12243;42.708;23.310;2023-02-18T11:36:17;6.73;;;4.47;;
16450;SDS011;12243;42.708;23.310;2023-02-18T11:38:49;4.47;;;4.07;;
16450;SDS011;12243;42.708;23.310;2023-02-18T11:41:19;7.20;;;4.87;;
16450;SDS011;12243;42.708;23.310;2023-02-18T11:43:48;5.70;;;4.80;;
16450;SDS011;12243;42.708;23.310;2023-02-18T11:46:18;8.30;;;4.80;;
16450;SDS011;12243;42.708;23.310;2023-02-18T11:48:47;7.37;;;4.90;;
16450;SDS011;12243;42.708;23.310;2023-02-18T11:51:16;7.70;;;4.20;;
16450;SDS011;12243;42.708;23.310;2023-02-18T11:53:55;6.27;;;4.43;;
16450;SDS011;12243;42.708;23.310;2023-02-18T11:56:27;8.30;;;4.50;;
16450;SDS011;12243;42.708;23.310;2023-02-18T11:58:57;10.90;;;4.63;;
16450;SDS011;12243;42.708;23.310;2023-02-18T12:01:29;8.70;;;4.87;;
16450;SDS011;12243;42.708;23.310;2023-02-18T12:04:04;8.10;;;5.13;;
16450;SDS011;12243;42.708;23.310;2023-02-18T12:06:36;6.37;;;4.70;;
16450;SDS011;12243;42.708;23.310;2023-02-18T12:09:12;8.57;;;5.07;;
16450;SDS011;12243;42.708;23.310;2023-02-18T12:11:47;7.17;;;5.03;;
16450;SDS011;12243;42.708;23.310;2023-02-18T12:14:17;8.07;;;4.83;;
16450;SDS011;12243;42.708;23.310;2023-02-18T12:16:48;7.70;;;5.07;;
16450;SDS011;12243;42.708;23.310;2023-02-18T12:19:41;5.33;;;4.43;;
16450;SDS011;12243;42.708;23.310;2023-02-18T12:22:18;5.03;;;4.57;;
16450;SDS011;12243;42.708;23.310;2023-02-18T12:24:58;8.70;;;5.10;;
16450;SDS011;12243;42.708;23.310;2023-02-18T12:27:35;4.47;;;4.10;;
16450;SDS011;12243;42.708;23.310;2023-02-18T12:30:20;5.43;;;4.60;;
16450;SDS011;12243;42.708;23.310;2023-02-18T12:32:59;4.75;;;4.35;;
16450;SDS011;12243;42.708;23.310;2023-02-18T12:35:39;5.88;;;4.82;;
16450;SDS011;12243;42.708;23.310;2023-02-18T12:38:20;5.83;;;4.53;;
16450;SDS011;12243;42.708;23.310;2023-02-18T12:41:07;4.70;;;4.10;;
16450;SDS011;12243;42.708;23.310;2023-02-18T12:43:55;6.93;;;4.95;;
16450;SDS011;12243;42.708;23.310;2023-02-18T12:46:35;6.15;;;4.32;;
16450;SDS011;12243;42.708;23.310;2023-02-18T12:49:34;5.18;;;4.43;;
16450;SDS011;12243;42.708;23.310;2023-02-18T12:52:22;5.53;;;3.60;;
16450;SDS011;12243;42.708;23.310;2023-02-18T12:55:05;8.60;;;3.93;;
16450;SDS011;12243;42.708;23.310;2023-02-18T12:57:46;5.35;;;4.07;;
16450;SDS011;12243;42.708;23.310;2023-02-18T13:00:26;6.67;;;4.03;;
16450;SDS011;12243;42.708;23.310;2023-02-18T13:06:09;7.47;;;4.30;;
16450;SDS011;12243;42.708;23.310;2023-02-18T13:08:49;6.07;;;4.68;;
16450;SDS011;12243;42.708;23.310;2023-02-18T13:11:27;6.38;;;4.18;;
16450;SDS011;12243;42.708;23.310;2023-02-18T13:14:03;6.47;;;4.85;;
16450;SDS011;12243;42.708;23.310;2023-02-18T13:16:38;7.63;;;4.60;;
16450;SDS011;12243;42.708;23.310;2023-02-18T13:19:10;6.18;;;4.50;;
16450;SDS011;12243;42.708;23.310;2023-02-18T13:21:44;7.40;;;4.55;;
16450;SDS011;12243;42.708;23.310;2023-02-18T13:24:14;6.85;;;4.45;;
16450;SDS011;12243;42.708;23.310;2023-02-18T13:26:49;5.93;;;4.80;;
16450;SDS011;12243;42.708;23.310;2023-02-18T13:29:25;5.40;;;4.90;;
16450;SDS011;12243;42.708;23.310;2023-02-18T13:32:00;6.70;;;4.30;;
16450;SDS011;12243;42.708;23.310;2023-02-18T13:34:35;5.18;;;4.68;;
16450;SDS011;12243;42.708;23.310;2023-02-18T13:37:15;5.23;;;3.43;;
16450;SDS011;12243;42.708;23.310;2023-02-18T13:39:48;6.93;;;4.03;;
16450;SDS011;12243;42.708;23.310;2023-02-18T13:42:25;6.37;;;4.43;;
16450;SDS011;12243;42.708;23.310;2023-02-18T13:45:06;6.53;;;4.50;;
16450;SDS011;12243;42.708;23.310;2023-02-18T13:47:51;5.80;;;4.60;;
16450;SDS011;12243;42.708;23.310;2023-02-18T13:50:24;5.30;;;4.07;;
16450;SDS011;12243;42.708;23.310;2023-02-18T13:52:58;5.77;;;4.60;;
16450;SDS011;12243;42.708;23.310;2023-02-18T13:56:02;12.23;;;4.23;;
16450;SDS011;12243;42.708;23.310;2023-02-18T13:58:37;5.97;;;4.60;;
16450;SDS011;12243;42.708;23.310;2023-02-18T14:01:13;9.37;;;4.37;;
16450;SDS011;12243;42.708;23.310;2023-02-18T14:03:51;5.93;;;4.60;;
16450;SDS011;12243;42.708;23.310;2023-02-18T14:06:24;5.15;;;4.05;;
16450;SDS011;12243;42.708;23.310;2023-02-18T14:09:01;4.57;;;3.70;;
16450;SDS011;12243;42.708;23.310;2023-02-18T14:11:47;6.30;;;4.80;;
16450;SDS011;12243;42.708;23.310;2023-02-18T14:14:30;10.82;;;5.05;;
16450;SDS011;12243;42.708;23.310;2023-02-18T14:17:28;7.43;;;4.40;;
16450;SDS011;12243;42.708;23.310;2023-02-18T14:26:15;14.00;;;7.37;;
16450;SDS011;12243;42.708;23.310;2023-02-18T14:28:48;6.93;;;4.57;;
16450;SDS011;12243;42.708;23.310;2023-02-18T14:31:23;4.97;;;4.43;;
16450;SDS011;12243;42.708;23.310;2023-02-18T14:34:02;5.23;;;4.73;;
16450;SDS011;12243;42.708;23.310;2023-02-18T14:36:51;7.17;;;5.07;;
16450;SDS011;12243;42.708;23.310;2023-02-18T14:39:35;6.10;;;4.57;;
16450;SDS011;12243;42.708;23.310;2023-02-18T14:42:15;7.53;;;4.87;;
16450;SDS011;12243;42.708;23.310;2023-02-18T14:45:01;7.40;;;5.07;;
16450;SDS011;12243;42.708;23.310;2023-02-18T14:47:41;6.30;;;5.70;;
16450;SDS011;12243;42.708;23.310;2023-02-18T14:50:30;6.87;;;5.27;;
16450;SDS011;12243;42.708;23.310;2023-02-18T14:53:03;8.20;;;4.40;;
16450;SDS011;12243;42.708;23.310;2023-02-18T14:55:36;7.73;;;4.90;;